Terminal Aerodrome Forecast
Issued by NWS

Current Version | Previous Version | Text Only | Print | Product List | Glossary On
Versions: 1 2 3 4 5 6 7 8 9 10 11 12 13 14 15 16 17 18 19 20 21 22 23 24 25 26 27
000
FTUS43 KMKX 221744
TAFUES
TAF
KUES 221744Z 2218/2318 21017G25KT P6SM FEW250
     FM230000 21008KT P6SM SCT200
     FM230500 25008KT P6SM FEW250
     FM230900 29008KT P6SM BKN060
     FM231200 34007KT P6SM BKN008
     FM231700 04009KT P6SM BKN020=

USA.gov is the U.S. government's official web portal to all federal, state and local government web resources and services.